Terminal Aerodrome Forecast
Issued by NWS

Home | Current Version | Previous Version | Text Only | Print | Product List | Glossary On
Versions: 1 2 3 4 5 6 7 8 9 10 11 12 13 14 15
000
FTUS45 KABQ 292320
TAFLVS
TAF
KLVS 292320Z 3000/3024 25015KT P6SM VCSH FEW090 SCT150
     FM300200 03015KT P6SM VCTS SCT070CB BKN130
     FM300500 05013KT P6SM -RA BKN035 OVC050
     FM300800 03008KT 5SM -RA BR BKN009
     FM301500 12010KT P6SM VCSH BKN035
     FM301800 16011KT P6SM VCSH SCT040=

USA.gov is the U.S. government's official web portal to all federal, state and local government web resources and services.